Time;durP1;ratioP1;P1;durP2;ratioP2;P2;SDS_P1;SDS_P2;PMS_P1;PMS_P2;Temp;Humidity;BMP_temperature;BMP_pressure;BME280_temperature;BME280_humidity;BME280_pressure;Samples;Min_cycle;Max_cycle;Signal;HPM_P1;HPM_P2
2022/04/29 00:02:07;;;;;;;34.80;6.93;;;32.70;12.80;;;;;;5060765;28;20459;-66
2022/04/29 00:04:35;;;;;;;28.73;7.10;;;32.80;14.20;;;;;;5057722;28;20541;-68
2022/04/29 00:07:03;;;;;;;40.90;6.70;;;32.70;14.60;;;;;;5059130;28;20043;-63
2022/04/29 00:09:29;;;;;;;33.13;6.82;;;32.70;15.10;;;;;;5056276;28;20064;-65
2022/04/29 00:11:56;;;;;;;19.88;5.95;;;32.80;14.90;;;;;;5057170;28;20035;-69
2022/04/29 00:14:25;;;;;;;54.45;8.07;;;32.80;14.60;;;;;;5057762;28;20091;-65
2022/04/29 00:16:52;;;;;;;72.80;10.05;;;32.40;15.10;;;;;;5063603;28;20062;-64
2022/04/29 00:19:21;;;;;;;50.35;7.30;;;32.20;15.20;;;;;;5053887;28;20531;-63
2022/04/29 00:21:48;;;;;;;79.95;8.52;;;32.20;15.30;;;;;;5056132;28;20054;-64
2022/04/29 00:24:15;;;;;;;48.97;7.43;;;32.30;15.40;;;;;;5057833;28;20068;-63
2022/04/29 00:26:41;;;;;;;17.58;5.50;;;32.10;15.20;;;;;;5058514;28;20508;-63
2022/04/29 00:29:09;;;;;;;22.38;5.93;;;31.90;15.40;;;;;;5056296;28;20053;-64
2022/04/29 00:31:36;;;;;;;24.80;6.07;;;31.80;15.50;;;;;;5038447;28;20059;-63
2022/04/29 00:34:02;;;;;;;68.60;8.00;;;31.80;15.60;;;;;;5055682;28;20060;-63
2022/04/29 00:36:29;;;;;;;50.47;7.03;;;31.70;14.90;;;;;;5075277;28;20141;-63
2022/04/29 00:38:55;;;;;;;78.43;8.35;;;31.70;14.20;;;;;;5056140;28;20050;-64
2022/04/29 00:41:23;;;;;;;77.57;8.23;;;31.60;13.90;;;;;;5073214;28;20050;-65
2022/04/29 00:44:02;;;;;;;67.90;8.82;;;31.70;13.90;;;;;;5074092;28;20050;-63
2022/04/29 00:46:32;;;;;;;231.70;12.70;;;31.50;13.50;;;;;;5075226;28;20469;-63
2022/04/29 00:48:59;;;;;;;32.75;5.82;;;31.30;13.50;;;;;;5041284;28;20048;-63
2022/04/29 00:51:25;;;;;;;37.30;5.18;;;31.10;13.20;;;;;;5044057;28;20055;-63
2022/04/29 00:53:54;;;;;;;25.77;5.63;;;30.90;12.80;;;;;;5056600;28;20517;-63
2022/04/29 00:56:22;;;;;;;30.10;6.00;;;30.80;13.30;;;;;;5056120;28;20053;-63
2022/04/29 00:58:58;;;;;;;30.52;5.93;;;30.70;13.80;;;;;;5073326;28;20580;-62
2022/04/29 01:01:26;;;;;;;68.20;8.27;;;30.60;14.10;;;;;;5055015;28;20053;-61
2022/04/29 01:03:55;;;;;;;33.58;6.57;;;30.50;14.20;;;;;;5040404;28;20070;-62
2022/04/29 01:06:24;;;;;;;39.95;6.53;;;30.50;14.10;;;;;;5041149;28;20061;-63
2022/04/29 01:08:50;;;;;;;42.75;7.05;;;30.30;14.40;;;;;;5074143;28;20378;-63
2022/04/29 01:11:25;;;;;;;37.53;6.78;;;30.20;14.60;;;;;;5075431;28;20530;-63
2022/04/29 01:13:53;;;;;;;33.03;5.88;;;30.00;14.70;;;;;;5056595;28;20125;-63
2022/04/29 01:16:21;;;;;;;54.00;8.45;;;29.80;14.80;;;;;;5076478;28;20119;-64
2022/04/29 01:18:51;;;;;;;61.05;7.88;;;29.60;15.00;;;;;;5054557;28;20067;-65
2022/04/29 01:21:18;;;;;;;84.10;10.18;;;29.40;15.10;;;;;;5053579;28;20096;-64
2022/04/29 01:23:44;;;;;;;57.78;9.07;;;29.10;15.60;;;;;;5055807;28;20056;-64
2022/04/29 01:26:15;;;;;;;57.65;7.85;;;28.90;16.20;;;;;;5076528;28;20078;-64
2022/04/29 01:28:45;;;;;;;48.92;7.53;;;28.90;16.70;;;;;;5057861;28;20060;-63
2022/04/29 01:31:16;;;;;;;98.38;9.88;;;28.60;16.50;;;;;;5074570;28;20065;-66
2022/04/29 01:33:45;;;;;;;120.22;12.35;;;28.50;16.50;;;;;;5054390;28;20067;-65
2022/04/29 01:36:12;;;;;;;41.90;7.72;;;28.40;17.20;;;;;;5076273;28;20068;-67
2022/04/29 01:38:39;;;;;;;59.90;8.52;;;28.10;17.60;;;;;;5076713;28;20557;-65
2022/04/29 01:41:06;;;;;;;165.18;13.70;;;28.10;17.60;;;;;;5055378;28;20142;-65
2022/04/29 01:43:35;;;;;;;90.07;10.13;;;28.00;17.70;;;;;;5053966;28;20110;-65
2022/04/29 01:46:02;;;;;;;57.00;7.88;;;27.90;17.90;;;;;;5058387;28;20108;-64
2022/04/29 01:48:29;;;;;;;173.07;16.27;;;27.80;18.20;;;;;;5054274;28;20065;-68
2022/04/29 01:50:56;;;;;;;88.18;9.32;;;27.70;18.50;;;;;;5056411;28;20073;-65
2022/04/29 01:53:22;;;;;;;36.45;7.18;;;27.60;18.70;;;;;;5053747;28;20061;-61
2022/04/29 01:55:49;;;;;;;131.82;9.90;;;27.50;18.90;;;;;;5054848;28;20080;-63
2022/04/29 01:58:15;;;;;;;52.60;7.78;;;27.30;18.60;;;;;;5073450;28;20077;-62
2022/04/29 02:00:42;;;;;;;78.25;9.00;;;27.10;18.50;;;;;;5055822;28;20518;-64
2022/04/29 02:03:09;;;;;;;37.47;7.30;;;26.90;18.60;;;;;;5052809;28;20100;-62
2022/04/29 02:05:35;;;;;;;40.10;6.97;;;26.80;18.60;;;;;;5075475;28;20098;-63
2022/04/29 02:08:02;;;;;;;35.80;7.18;;;26.70;18.60;;;;;;5072646;28;20070;-62
2022/04/29 02:10:28;;;;;;;37.88;6.55;;;26.60;18.50;;;;;;5055300;28;20105;-63
2022/04/29 02:12:54;;;;;;;47.20;6.80;;;26.50;18.50;;;;;;5052059;28;20204;-64
2022/04/29 02:15:21;;;;;;;34.15;7.00;;;26.40;18.40;;;;;;5053661;28;20078;-62
2022/04/29 02:17:48;;;;;;;67.15;7.97;;;26.30;18.20;;;;;;5052798;28;20521;-62
2022/04/29 02:20:14;;;;;;;49.25;7.72;;;26.30;17.90;;;;;;5071720;28;20475;-62
2022/04/29 02:22:41;;;;;;;48.75;7.85;;;26.20;18.00;;;;;;5055206;28;20127;-62
2022/04/29 02:25:08;;;;;;;40.15;7.22;;;26.10;17.90;;;;;;5056429;28;20084;-62
2022/04/29 02:27:36;;;;;;;41.47;7.47;;;26.00;17.90;;;;;;5055942;28;20077;-65
2022/04/29 02:30:03;;;;;;;53.88;7.80;;;26.00;17.90;;;;;;5073193;28;20061;-64
2022/04/29 02:32:31;;;;;;;28.48;6.40;;;25.90;17.80;;;;;;5052157;28;20178;-62
2022/04/29 02:35:00;;;;;;;41.20;6.88;;;25.80;17.30;;;;;;5056763;28;20445;-66
2022/04/29 02:37:27;;;;;;;41.33;6.75;;;25.70;17.10;;;;;;5039942;28;20122;-62
2022/04/29 02:39:54;;;;;;;35.40;7.20;;;25.70;17.10;;;;;;5055743;28;20561;-66
2022/04/29 02:42:20;;;;;;;31.30;6.65;;;25.70;17.10;;;;;;5057192;28;20126;-60
2022/04/29 02:44:47;;;;;;;30.90;6.70;;;25.60;16.80;;;;;;5072494;28;20102;-62
2022/04/29 02:47:13;;;;;;;31.02;7.60;;;25.60;16.50;;;;;;5073580;28;20525;-66
2022/04/29 02:49:44;;;;;;;36.78;7.35;;;25.60;16.50;;;;;;5072077;28;20140;-62
2022/04/29 02:52:13;;;;;;;30.25;6.53;;;25.50;16.40;;;;;;5078072;28;20205;-64
2022/04/29 02:54:41;;;;;;;22.40;6.85;;;25.40;16.20;;;;;;5070420;28;20144;-63
2022/04/29 02:57:07;;;;;;;29.90;7.05;;;25.30;16.30;;;;;;5055034;28;20144;-63
2022/04/29 02:59:34;;;;;;;24.98;6.40;;;25.30;16.30;;;;;;5045909;28;20075;-61
2022/04/29 03:02:00;;;;;;;23.77;5.97;;;25.30;16.30;;;;;;5061171;28;20522;-63
2022/04/29 03:04:26;;;;;;;22.17;5.65;;;25.20;16.20;;;;;;5056143;28;20111;-62
2022/04/29 03:06:53;;;;;;;27.63;7.60;;;25.10;16.20;;;;;;5057375;28;20075;-63
2022/04/29 03:09:20;;;;;;;28.92;7.03;;;25.10;16.20;;;;;;5059815;28;20511;-61
2022/04/29 03:11:48;;;;;;;22.45;6.32;;;25.00;16.30;;;;;;5074162;28;20095;-62
2022/04/29 03:14:14;;;;;;;24.48;6.65;;;24.90;16.40;;;;;;5060967;28;20108;-65
2022/04/29 03:16:41;;;;;;;30.73;7.57;;;24.90;16.40;;;;;;5060354;28;20078;-62
2022/04/29 03:19:08;;;;;;;22.92;6.68;;;24.80;16.40;;;;;;5076929;28;20091;-63
2022/04/29 03:21:35;;;;;;;27.05;7.90;;;24.80;16.50;;;;;;5076803;28;20095;-64
2022/04/29 03:24:03;;;;;;;27.27;6.97;;;24.70;16.60;;;;;;5040504;28;20135;-64
2022/04/29 03:26:30;;;;;;;24.67;6.70;;;24.70;16.60;;;;;;5060284;28;20175;-62
2022/04/29 03:28:57;;;;;;;24.40;6.43;;;24.70;16.50;;;;;;5041184;28;20114;-62
2022/04/29 03:31:23;;;;;;;24.13;5.75;;;24.60;16.20;;;;;;5042387;28;20159;-62
2022/04/29 03:33:50;;;;;;;23.70;6.45;;;24.50;16.20;;;;;;5042823;28;20851;-61
2022/04/29 03:36:16;;;;;;;26.25;6.97;;;24.50;16.20;;;;;;5056298;28;20084;-62
2022/04/29 03:38:43;;;;;;;28.75;5.88;;;24.50;16.30;;;;;;5075064;28;20086;-63
2022/04/29 03:41:09;;;;;;;38.63;9.02;;;24.40;16.40;;;;;;5057400;28;20072;-65
2022/04/29 03:43:36;;;;;;;23.88;6.35;;;24.20;16.50;;;;;;5074813;28;20201;-64
2022/04/29 03:46:03;;;;;;;25.77;6.75;;;24.20;16.50;;;;;;5057520;28;20084;-62
2022/04/29 03:49:35;;;;;;;35.15;7.05;;;24.10;16.40;;;;;;5056699;28;20072;-65
2022/04/29 03:51:15;;;;;;;32.72;7.63;;;24.00;16.50;;;;;;5075325;28;20544;-61
2022/04/29 03:53:41;;;;;;;20.67;6.10;;;24.00;16.50;;;;;;5075177;28;20099;-62
2022/04/29 03:56:08;;;;;;;27.17;6.97;;;23.90;16.60;;;;;;5058250;28;20072;-62
2022/04/29 03:58:34;;;;;;;18.98;7.00;;;23.80;16.90;;;;;;5059941;28;20076;-62
2022/04/29 04:01:00;;;;;;;27.70;7.75;;;23.70;17.20;;;;;;5057642;28;20117;-63
2022/04/29 04:03:27;;;;;;;24.48;6.97;;;23.70;17.50;;;;;;5055016;28;20091;-62
2022/04/29 04:08:38;;;;;;;16.48;6.40;;;23.40;17.90;;;;;;5059775;28;20074;-65
2022/04/29 04:11:05;;;;;;;17.10;6.88;;;23.30;18.30;;;;;;5054645;28;20075;-62
2022/04/29 04:13:31;;;;;;;16.25;6.25;;;23.20;18.50;;;;;;5035945;28;20101;-61
2022/04/29 04:15:58;;;;;;;21.63;6.75;;;23.10;18.60;;;;;;5048808;28;20577;-62
2022/04/29 04:18:24;;;;;;;18.40;6.43;;;23.10;18.70;;;;;;5020155;28;20079;-62
2022/04/29 04:20:50;;;;;;;28.55;6.60;;;23.10;19.10;;;;;;5036246;28;20065;-63
2022/04/29 04:23:17;;;;;;;23.58;5.60;;;23.00;20.20;;;;;;5037593;28;20072;-65
2022/04/29 04:25:44;;;;;;;27.73;6.78;;;23.00;21.20;;;;;;5037922;28;20095;-64
2022/04/29 04:28:13;;;;;;;26.70;7.00;;;22.80;21.80;;;;;;5021338;28;20072;-64
2022/04/29 04:30:40;;;;;;;22.50;6.22;;;22.60;22.20;;;;;;5036554;28;20100;-62
2022/04/29 04:33:07;;;;;;;32.97;7.20;;;22.60;22.60;;;;;;5025129;28;20068;-63
2022/04/29 04:35:33;;;;;;;32.95;6.65;;;22.50;22.80;;;;;;5037614;28;20080;-65
2022/04/29 04:38:00;;;;;;;27.58;6.75;;;22.40;23.20;;;;;;5037251;28;20856;-65
2022/04/29 04:40:26;;;;;;;25.25;7.00;;;22.40;23.70;;;;;;5056632;28;20163;-65
2022/04/29 04:42:53;;;;;;;23.63;6.85;;;22.30;24.10;;;;;;5036347;28;20106;-62
2022/04/29 04:45:20;;;;;;;22.92;6.55;;;22.20;24.60;;;;;;5031113;28;20581;-62
2022/04/29 04:47:46;;;;;;;32.90;6.38;;;22.10;24.80;;;;;;5035823;28;20149;-62
2022/04/29 04:50:13;;;;;;;25.00;6.75;;;22.10;25.00;;;;;;5051054;28;20069;-62
2022/04/29 04:52:44;;;;;;;21.30;6.50;;;22.00;25.30;;;;;;5036315;28;20089;-62
2022/04/29 04:55:11;;;;;;;22.38;6.22;;;21.90;25.20;;;;;;5056136;28;20068;-62
2022/04/29 04:57:37;;;;;;;26.88;7.53;;;21.90;25.20;;;;;;5035664;28;20068;-61
2022/04/29 05:00:05;;;;;;;17.42;6.28;;;21.90;25.20;;;;;;5042650;28;20122;-62
2022/04/29 05:02:31;;;;;;;23.23;6.82;;;21.90;24.90;;;;;;5054694;28;20099;-62
2022/04/29 05:04:58;;;;;;;16.50;6.10;;;21.90;24.80;;;;;;5033224;28;20229;-64
2022/04/29 05:07:24;;;;;;;21.58;6.28;;;21.90;25.10;;;;;;5032380;28;20080;-65
2022/04/29 05:09:51;;;;;;;28.30;5.80;;;21.80;25.60;;;;;;5019320;28;20195;-63
2022/04/29 05:12:17;;;;;;;22.08;6.05;;;21.70;26.10;;;;;;5052113;28;20146;-62
2022/04/29 05:14:43;;;;;;;21.13;6.13;;;21.70;26.40;;;;;;5036958;28;20106;-65
2022/04/29 05:17:10;;;;;;;27.98;7.10;;;21.60;27.20;;;;;;5053614;28;20141;-63
2022/04/29 05:19:36;;;;;;;24.85;6.95;;;21.50;28.10;;;;;;5054516;28;20093;-64
2022/04/29 05:22:03;;;;;;;25.55;6.40;;;21.40;28.50;;;;;;5055504;28;20079;-65
2022/04/29 05:24:30;;;;;;;32.83;6.68;;;21.30;28.90;;;;;;5073442;28;20225;-64
2022/04/29 05:26:56;;;;;;;25.38;6.40;;;21.30;29.40;;;;;;5054198;28;20526;-61
2022/04/29 05:29:23;;;;;;;23.10;6.30;;;21.20;29.80;;;;;;5054769;28;20092;-61
2022/04/29 05:31:49;;;;;;;21.52;6.30;;;21.10;30.40;;;;;;5071705;28;20078;-63
2022/04/29 05:34:16;;;;;;;29.85;6.53;;;21.10;30.80;;;;;;5054847;28;20146;-62
2022/04/29 05:36:43;;;;;;;29.60;6.57;;;21.10;30.60;;;;;;5069400;28;20060;-62
2022/04/29 05:44:39;;;;;;;31.88;6.53;;;21.00;31.10;;;;;;5072299;28;20172;-62
2022/04/29 05:47:07;;;;;;;22.95;5.72;;;20.80;31.60;;;;;;5056464;28;20091;-63
2022/04/29 05:49:33;;;;;;;24.02;6.28;;;20.80;32.20;;;;;;5054360;28;20086;-65
2022/04/29 05:52:01;;;;;;;29.95;6.45;;;20.80;32.40;;;;;;5072897;28;20072;-64
2022/04/29 05:54:28;;;;;;;29.55;6.93;;;20.80;32.90;;;;;;5054248;28;20080;-65
2022/04/29 05:56:54;;;;;;;28.90;6.43;;;20.70;33.20;;;;;;5039480;28;20503;-62
2022/04/29 05:59:21;;;;;;;30.48;6.35;;;20.60;33.50;;;;;;5057828;28;20175;-63
2022/04/29 06:01:47;;;;;;;30.13;6.63;;;20.60;33.60;;;;;;5056252;28;20508;-62
2022/04/29 06:04:13;;;;;;;26.63;7.03;;;20.60;33.80;;;;;;5073229;28;20084;-64
2022/04/29 06:06:40;;;;;;;25.92;6.47;;;20.60;33.90;;;;;;5052542;28;20068;-62
2022/04/29 06:09:09;;;;;;;26.45;6.25;;;20.60;33.70;;;;;;5054854;28;20084;-62
2022/04/29 06:11:35;;;;;;;28.45;6.18;;;20.60;33.40;;;;;;5055276;28;20091;-64
2022/04/29 06:14:02;;;;;;;32.45;6.20;;;20.60;32.90;;;;;;5056564;28;20669;-62
2022/04/29 06:16:28;;;;;;;23.88;6.47;;;20.60;33.20;;;;;;5054728;28;20096;-64
2022/04/29 06:18:55;;;;;;;24.27;5.80;;;20.50;33.40;;;;;;5055618;28;20669;-63
2022/04/29 06:21:21;;;;;;;24.75;6.65;;;20.50;33.50;;;;;;5073439;28;20545;-62
2022/04/29 06:23:48;;;;;;;23.55;6.40;;;20.50;33.50;;;;;;5056510;28;20184;-62
2022/04/29 06:26:15;;;;;;;24.50;6.10;;;20.50;33.50;;;;;;5058658;28;20166;-65
2022/04/29 06:28:42;;;;;;;18.13;5.78;;;20.50;33.50;;;;;;5059151;28;20074;-62
2022/04/29 06:31:09;;;;;;;29.83;6.30;;;20.40;33.30;;;;;;5058817;28;20155;-63
2022/04/29 06:33:38;;;;;;;19.45;6.35;;;20.50;33.10;;;;;;5040933;28;20159;-63
2022/04/29 06:36:06;;;;;;;26.60;6.82;;;20.50;32.80;;;;;;5058114;28;20125;-63
2022/04/29 06:38:32;;;;;;;19.92;6.55;;;20.50;32.70;;;;;;5058518;28;20445;-62
2022/04/29 06:40:59;;;;;;;22.05;6.35;;;20.40;32.10;;;;;;5077696;28;20158;-63
2022/04/29 06:43:28;;;;;;;28.02;6.97;;;20.50;31.60;;;;;;5058299;28;20480;-64
2022/04/29 06:45:54;;;;;;;20.80;5.88;;;20.50;30.80;;;;;;5058929;28;20583;-64
2022/04/29 06:48:21;;;;;;;20.17;6.15;;;20.60;30.50;;;;;;5039408;28;20081;-62
2022/04/29 06:50:47;;;;;;;23.80;6.85;;;20.70;30.40;;;;;;5074971;28;20106;-63
2022/04/29 06:53:14;;;;;;;18.42;6.30;;;20.60;30.70;;;;;;5073620;28;20072;-62
2022/04/29 06:55:40;;;;;;;17.58;5.88;;;20.70;31.30;;;;;;5075094;28;20072;-63
2022/04/29 06:58:07;;;;;;;17.80;6.07;;;20.60;31.50;;;;;;5060368;28;20163;-64
2022/04/29 07:00:35;;;;;;;21.33;5.68;;;20.60;32.00;;;;;;5061469;28;20604;-63
2022/04/29 07:03:02;;;;;;;15.75;5.80;;;20.50;32.30;;;;;;5077157;28;20068;-62
2022/04/29 07:05:33;;;;;;;21.63;6.40;;;20.50;32.60;;;;;;5057150;28;20088;-64
2022/04/29 07:08:00;;;;;;;20.05;6.22;;;20.50;32.50;;;;;;5076546;28;20754;-63
2022/04/29 07:10:26;;;;;;;20.20;5.65;;;20.50;32.40;;;;;;5040744;28;20102;-64
2022/04/29 07:12:53;;;;;;;23.35;6.00;;;20.40;32.20;;;;;;5058508;28;20195;-64
2022/04/29 07:15:21;;;;;;;20.67;5.43;;;20.40;32.30;;;;;;5076770;28;20076;-62
2022/04/29 07:17:47;;;;;;;19.42;6.15;;;20.40;32.60;;;;;;5076659;28;20083;-67
2022/04/29 07:20:14;;;;;;;24.67;5.75;;;20.30;32.80;;;;;;5076418;28;20196;-64
2022/04/29 07:22:42;;;;;;;17.95;5.18;;;20.30;33.00;;;;;;5043017;28;20487;-63
2022/04/29 07:25:11;;;;;;;16.13;5.82;;;20.30;33.20;;;;;;5077543;28;20084;-62
2022/04/29 07:27:39;;;;;;;22.88;5.45;;;20.30;33.20;;;;;;5039553;28;20441;-62
2022/04/29 07:30:07;;;;;;;16.73;5.18;;;20.20;33.20;;;;;;5074362;28;20126;-64
2022/04/29 07:32:34;;;;;;;15.77;6.20;;;20.20;33.00;;;;;;5057699;28;20091;-62
2022/04/29 07:43:15;;;;;;;22.90;6.25;;;20.10;33.20;;;;;;5076007;28;20544;-62
2022/04/29 07:45:42;;;;;;;22.30;6.25;;;20.20;33.10;;;;;;5056287;28;20118;-62
2022/04/29 07:48:09;;;;;;;22.83;6.07;;;20.20;33.00;;;;;;5076577;28;20068;-62
2022/04/29 07:50:35;;;;;;;16.30;5.47;;;20.20;32.80;;;;;;5039853;28;20072;-62
2022/04/29 07:53:04;;;;;;;21.45;5.93;;;20.20;32.30;;;;;;5057238;28;20069;-63
2022/04/29 07:55:30;;;;;;;15.68;5.90;;;20.10;32.10;;;;;;5058865;28;20110;-62
2022/04/29 07:57:57;;;;;;;20.52;5.80;;;20.10;32.20;;;;;;5042116;28;20534;-65
2022/04/29 08:00:24;;;;;;;21.30;5.55;;;20.10;32.20;;;;;;5043660;28;20076;-61
2022/04/29 08:02:51;;;;;;;14.52;5.93;;;20.10;32.10;;;;;;5060202;28;20157;-63
2022/04/29 08:05:18;;;;;;;20.40;5.60;;;20.10;31.90;;;;;;5059394;28;20141;-62
2022/04/29 08:07:44;;;;;;;18.58;5.32;;;20.00;31.70;;;;;;5056657;28;20079;-61
2022/04/29 08:10:10;;;;;;;23.50;5.93;;;20.10;31.80;;;;;;5058949;28;20072;-62
2022/04/29 08:12:37;;;;;;;;;;;20.10;31.70;;;;;;5056932;28;20561;-64
2022/04/29 08:15:04;;;;;;;21.40;6.23;;;20.10;31.60;;;;;;5057712;28;19955;-63
2022/04/29 08:17:30;;;;;;;15.52;5.38;;;20.00;31.60;;;;;;5055329;28;20087;-62
2022/04/29 08:19:58;;;;;;;18.63;5.72;;;20.00;31.60;;;;;;5037314;28;20096;-63
2022/04/29 08:22:24;;;;;;;19.25;5.40;;;19.90;31.70;;;;;;5056518;28;20604;-62
2022/04/29 08:24:51;;;;;;;20.80;5.93;;;19.90;31.90;;;;;;5064078;28;20133;-63
2022/04/29 08:27:18;;;;;;;21.48;5.18;;;19.90;32.20;;;;;;5075137;28;20063;-62
2022/04/29 08:29:44;;;;;;;18.35;5.70;;;19.90;32.70;;;;;;5074536;28;20114;-63
2022/04/29 08:32:10;;;;;;;;;;;19.90;33.10;;;;;;5056995;28;20561;-61
2022/04/29 08:34:37;;;;;;;17.50;5.55;;;19.90;33.40;;;;;;5075444;28;19970;-64
2022/04/29 08:37:05;;;;;;;16.98;6.00;;;19.80;33.70;;;;;;5073907;28;20079;-62
2022/04/29 08:39:32;;;;;;;20.42;5.93;;;19.80;33.90;;;;;;5048586;28;20088;-62
2022/04/29 08:42:01;;;;;;;;;;;19.80;34.10;;;;;;5076675;28;20082;-64
2022/04/29 08:44:31;;;;;;;20.38;6.13;;;19.70;34.30;;;;;;5056624;28;19978;-62
2022/04/29 08:46:58;;;;;;;18.63;6.30;;;19.70;34.50;;;;;;5057430;28;20095;-64
2022/04/29 08:49:26;;;;;;;18.33;5.80;;;19.70;34.80;;;;;;5057439;28;20068;-62
2022/04/29 08:51:53;;;;;;;15.57;5.65;;;19.60;35.30;;;;;;5040966;28;20129;-62
2022/04/29 09:00:07;;;;;;;14.45;5.95;;;19.40;35.20;;;;;;5073104;28;20098;-64
2022/04/29 09:02:40;;;;;;;23.73;5.70;;;19.50;35.20;;;;;;5058616;28;20072;-64
2022/04/29 09:05:09;;;;;;;17.33;5.57;;;19.40;35.20;;;;;;5075111;28;20080;-62
2022/04/29 09:08:15;;;;;;;20.23;6.63;;;19.50;35.40;;;;;;5055928;28;20442;-65
2022/04/29 09:10:52;;;;;;;20.92;5.88;;;19.40;35.50;;;;;;4995223;28;20069;-62
2022/04/29 09:13:24;;;;;;;16.27;5.82;;;19.40;35.40;;;;;;4999838;28;20116;-64
2022/04/29 09:16:01;;;;;;;19.08;6.28;;;19.40;35.50;;;;;;4989732;28;20132;-62
2022/04/29 09:18:32;;;;;;;;;;;19.40;35.40;;;;;;4998615;28;20073;-63
2022/04/29 09:20:59;;;;;;;20.55;5.63;;;19.40;35.60;;;;;;5000220;28;20004;-63
2022/04/29 09:23:31;;;;;;;19.95;5.70;;;19.40;35.30;;;;;;4990952;28;20164;-62
2022/04/29 09:26:05;;;;;;;18.52;6.28;;;19.40;35.30;;;;;;4978001;28;20145;-62
2022/04/29 09:28:33;;;;;;;15.30;4.88;;;19.30;35.30;;;;;;4988757;28;20446;-62
2022/04/29 09:31:00;;;;;;;22.17;6.40;;;19.30;35.40;;;;;;4985767;28;20085;-62
2022/04/29 09:33:29;;;;;;;15.65;5.43;;;19.30;35.40;;;;;;4997679;28;20437;-64
2022/04/29 09:35:56;;;;;;;18.80;5.40;;;19.30;35.10;;;;;;5003700;28;20081;-62
2022/04/29 09:41:08;;;;;;;15.45;5.53;;;19.30;34.70;;;;;;5000712;28;20096;-62
2022/04/29 09:43:34;;;;;;;18.13;5.40;;;19.40;34.80;;;;;;5001171;28;20124;-62
2022/04/29 09:46:11;;;;;;;15.85;4.95;;;19.30;34.80;;;;;;5080912;28;20485;-62
2022/04/29 09:48:54;;;;;;;;;;;19.30;34.80;;;;;;5054529;28;20084;-62
2022/04/29 09:51:46;;;;;;;18.05;5.43;;;19.30;34.70;;;;;;5079381;28;20409;-61
2022/04/29 09:54:16;;;;;;;16.83;6.13;;;19.20;34.70;;;;;;5085295;28;20072;-62
2022/04/29 09:56:44;;;;;;;14.98;5.88;;;19.30;34.70;;;;;;5056647;28;20095;-65
2022/04/29 09:59:11;;;;;;;14.60;5.22;;;19.20;34.70;;;;;;5054688;28;20071;-62
2022/04/29 10:01:38;;;;;;;20.95;5.75;;;19.20;34.80;;;;;;5055685;28;20513;-61
2022/04/29 10:04:04;;;;;;;20.75;6.00;;;19.20;34.80;;;;;;5036513;28;20199;-64
2022/04/29 10:06:33;;;;;;;13.18;5.20;;;19.20;34.80;;;;;;5058105;28;20205;-62
2022/04/29 10:09:00;;;;;;;16.13;5.55;;;19.20;35.00;;;;;;5073020;28;20065;-64
2022/04/29 10:11:28;;;;;;;15.20;5.07;;;19.10;35.00;;;;;;5056823;28;20096;-64
2022/04/29 10:13:59;;;;;;;18.70;5.50;;;19.20;35.10;;;;;;5040124;28;20104;-62
2022/04/29 10:16:31;;;;;;;17.55;5.50;;;19.10;35.10;;;;;;5040039;28;20108;-64
2022/04/29 10:21:51;;;;;;;17.95;5.90;;;18.90;35.70;;;;;;5085386;28;20278;-64
2022/04/29 10:24:18;;;;;;;16.30;5.57;;;18.90;35.60;;;;;;5053471;28;20072;-62
2022/04/29 10:26:46;;;;;;;15.27;5.28;;;19.00;35.60;;;;;;5075997;28;20538;-61
2022/04/29 10:29:13;;;;;;;14.30;6.07;;;18.90;35.60;;;;;;5082146;28;20458;-61
2022/04/29 10:31:39;;;;;;;;;;;18.90;35.50;;;;;;5057654;28;20542;-62
2022/04/29 10:34:31;;;;;;;18.10;5.85;;;19.00;35.70;;;;;;5068975;28;20102;-62
2022/04/29 10:36:58;;;;;;;15.65;5.60;;;18.90;35.70;;;;;;5074690;28;20064;-62
2022/04/29 10:39:25;;;;;;;13.77;5.25;;;18.90;35.50;;;;;;5053983;28;20077;-64
2022/04/29 10:42:00;;;;;;;19.02;6.03;;;18.90;35.90;;;;;;5056602;28;20069;-61
2022/04/29 10:44:26;;;;;;;16.58;5.63;;;18.80;35.80;;;;;;5052257;28;20207;-62
2022/04/29 10:46:53;;;;;;;17.67;4.90;;;18.80;35.80;;;;;;5057558;28;20138;-62
2022/04/29 10:49:30;;;;;;;16.77;5.40;;;18.80;36.00;;;;;;5069041;28;20067;-64
2022/04/29 10:52:03;;;;;;;19.05;5.18;;;18.70;36.20;;;;;;5046497;28;20079;-64
2022/04/29 10:54:35;;;;;;;15.68;5.70;;;18.70;36.30;;;;;;5052910;28;20064;-63
2022/04/29 10:57:07;;;;;;;17.10;5.22;;;18.70;36.50;;;;;;5076606;28;20113;-62
2022/04/29 10:59:54;;;;;;;15.82;4.85;;;18.70;36.70;;;;;;5035257;28;20079;-62
2022/04/29 11:02:28;;;;;;;15.97;5.40;;;18.70;36.90;;;;;;5076825;28;20575;-62
2022/04/29 11:04:56;;;;;;;16.65;5.72;;;18.70;36.80;;;;;;5058968;28;20590;-63
2022/04/29 11:07:42;;;;;;;20.13;6.07;;;18.70;37.10;;;;;;5046958;28;20453;-63
2022/04/29 11:10:18;;;;;;;21.15;5.93;;;18.70;37.40;;;;;;5072286;28;20067;-62
2022/04/29 11:13:04;;;;;;;18.77;5.75;;;18.70;37.50;;;;;;5054172;28;20473;-63
2022/04/29 11:15:45;;;;;;;17.00;5.87;;;18.60;37.60;;;;;;5057780;28;20080;-62
2022/04/29 11:18:15;;;;;;;19.55;5.40;;;18.60;37.70;;;;;;5065105;28;20919;-62
2022/04/29 11:20:45;;;;;;;17.30;5.43;;;18.60;38.00;;;;;;5077979;28;20122;-64
2022/04/29 11:25:59;;;;;;;15.80;5.10;;;18.50;38.00;;;;;;5062951;28;20602;-62
2022/04/29 11:28:27;;;;;;;22.60;5.88;;;18.40;38.20;;;;;;5060003;28;20538;-62
2022/04/29 11:31:02;;;;;;;16.58;5.32;;;18.40;38.10;;;;;;5059089;28;20110;-62
2022/04/29 11:33:29;;;;;;;19.08;5.45;;;18.40;38.20;;;;;;5056776;28;20472;-62
2022/04/29 11:36:10;;;;;;;21.25;5.57;;;18.30;38.20;;;;;;5057629;28;20082;-62
2022/04/29 11:38:47;;;;;;;21.85;5.93;;;18.30;38.30;;;;;;5055498;28;20080;-64
2022/04/29 11:41:21;;;;;;;;;;;18.30;38.40;;;;;;5081113;28;20074;-62
2022/04/29 11:43:51;;;;;;;18.05;5.63;;;18.20;38.30;;;;;;5066798;28;19979;-62
2022/04/29 11:46:18;;;;;;;19.02;6.22;;;18.20;38.60;;;;;;5057814;28;20098;-63
2022/04/29 11:48:59;;;;;;;20.65;6.15;;;18.20;38.70;;;;;;5058086;28;20080;-63
2022/04/29 11:51:27;;;;;;;17.55;5.75;;;18.20;38.80;;;;;;5057694;28;20539;-64
2022/04/29 11:53:53;;;;;;;19.02;5.97;;;18.20;38.70;;;;;;5059817;28;20079;-65
2022/04/29 11:56:19;;;;;;;;;;;18.20;38.70;;;;;;5078653;28;20090;-64
2022/04/29 11:58:46;;;;;;;16.70;5.97;;;18.10;38.70;;;;;;5060009;28;19960;-63
2022/04/29 12:01:15;;;;;;;20.70;6.60;;;18.20;38.80;;;;;;5056874;28;20482;-63
2022/04/29 12:03:50;;;;;;;17.52;5.20;;;18.10;38.70;;;;;;5057752;28;20076;-63
2022/04/29 12:06:16;;;;;;;18.23;5.68;;;18.20;38.60;;;;;;5057784;28;20179;-62
2022/04/29 12:08:44;;;;;;;;;;;18.20;38.30;;;;;;5046197;28;20103;-63
2022/04/29 12:11:10;;;;;;;16.88;5.30;;;18.20;38.20;;;;;;5059446;28;20025;-63
2022/04/29 12:13:36;;;;;;;19.70;5.40;;;18.20;38.00;;;;;;5058370;28;20104;-62
2022/04/29 12:16:04;;;;;;;;;;;18.20;37.90;;;;;;5059292;28;20517;-62
2022/04/29 12:18:57;;;;;;;17.65;5.63;;;18.30;37.50;;;;;;5055796;28;20406;-64
2022/04/29 12:21:25;;;;;;;15.10;4.80;;;18.30;37.20;;;;;;5052841;28;20113;-62
2022/04/29 12:23:52;;;;;;;12.23;4.55;;;18.40;37.40;;;;;;5057457;28;20444;-62
2022/04/29 12:26:19;;;;;;;17.67;5.82;;;18.40;37.40;;;;;;5042748;28;20107;-64
2022/04/29 12:28:56;;;;;;;16.30;5.57;;;18.40;37.60;;;;;;5040631;28;20071;-62
2022/04/29 12:37:09;;;;;;;17.80;5.43;;;18.20;39.20;;;;;;5085683;28;20098;-65
2022/04/29 12:39:41;;;;;;;14.63;5.97;;;18.20;39.60;;;;;;5067138;28;20432;-64
2022/04/29 12:42:18;;;;;;;18.65;5.97;;;18.20;39.60;;;;;;5056772;28;20091;-65
2022/04/29 12:45:10;;;;;;;16.83;5.78;;;18.10;39.60;;;;;;5056993;28;20100;-62
2022/04/29 12:47:38;;;;;;;30.50;6.05;;;18.20;39.90;;;;;;5043726;28;20445;-62
2022/04/29 12:50:25;;;;;;;19.25;6.30;;;18.20;39.90;;;;;;5056607;28;20072;-62
2022/04/29 12:52:57;;;;;;;18.60;5.75;;;18.10;39.70;;;;;;5081537;28;20067;-62
2022/04/29 12:55:25;;;;;;;26.65;6.60;;;17.90;39.90;;;;;;5078734;28;20072;-61
2022/04/29 12:57:51;;;;;;;22.85;6.63;;;17.80;40.30;;;;;;5040101;28;20081;-62
2022/04/29 13:00:22;;;;;;;;;;;17.70;40.80;;;;;;5058715;28;20145;-63
2022/04/29 13:03:05;;;;;;;24.80;5.80;;;17.70;41.50;;;;;;5061428;28;19962;-61
2022/04/29 13:05:32;;;;;;;21.25;5.95;;;17.70;41.00;;;;;;5047030;28;20550;-63
2022/04/29 13:07:59;;;;;;;24.60;6.10;;;17.70;41.20;;;;;;5070946;28;20102;-64
2022/04/29 13:10:25;;;;;;;21.63;5.63;;;17.70;41.30;;;;;;5058877;28;20068;-61
2022/04/29 13:12:52;;;;;;;19.60;5.82;;;17.70;40.90;;;;;;5055591;28;20107;-61
2022/04/29 13:15:18;;;;;;;21.48;5.55;;;17.70;40.80;;;;;;5065496;28;20087;-61
2022/04/29 13:17:45;;;;;;;17.20;5.65;;;17.60;40.60;;;;;;5021025;28;20079;-62
2022/04/29 13:20:11;;;;;;;;;;;17.70;40.40;;;;;;5062908;28;20122;-61
2022/04/29 13:22:38;;;;;;;17.35;5.82;;;17.70;40.20;;;;;;5053478;28;20043;-63
2022/04/29 13:25:07;;;;;;;22.70;5.57;;;17.70;40.20;;;;;;5037911;28;20474;-62